createdAt,value
2023-04-16T00:00:51.167Z,94568.72
2023-04-16T00:05:56.233Z,94568.34
2023-04-16T00:10:58.601Z,94571.53
2023-04-16T00:16:01.128Z,94572.44
2023-04-16T00:21:03.507Z,94579.28
2023-04-16T00:26:06.277Z,94575.94
2023-04-16T00:31:08.548Z,94565.09
2023-04-16T00:36:11.806Z,94570.25
2023-04-16T00:41:28.771Z,94567.94
2023-04-16T00:46:43.397Z,94562.78
2023-04-16T00:51:45.901Z,94556.09
2023-04-16T00:56:48.290Z,94552.63
2023-04-16T01:01:54.714Z,94541.34
2023-04-16T01:06:59.434Z,94546.34
2023-04-16T01:12:02.563Z,94542.22
2023-04-16T01:17:04.933Z,94551.06
2023-04-16T01:22:07.408Z,94564.34
2023-04-16T01:27:09.573Z,94569.06
2023-04-16T01:32:14.206Z,94564.03
2023-04-16T01:37:18.100Z,94557.72
2023-04-16T01:42:21.573Z,94553.50
2023-04-16T01:47:25.223Z,94557.28
2023-04-16T01:52:29.122Z,94562.53
2023-04-16T01:57:34.572Z,94560.28
2023-04-16T02:02:37.374Z,94568.81
2023-04-16T02:07:39.513Z,94555.47
2023-04-16T02:12:41.962Z,94558.94
2023-04-16T02:17:47.084Z,94560.59
2023-04-16T02:22:49.577Z,94556.03
2023-04-16T02:27:55.626Z,94557.38
2023-04-16T02:33:13.045Z,94556.91
2023-04-16T02:38:27.092Z,94557.91
2023-04-16T02:43:29.699Z,94563.59
2023-04-16T02:48:32.334Z,94568.28
2023-04-16T02:53:35.068Z,94574.28
2023-04-16T02:58:37.196Z,94568.44
2023-04-16T03:03:39.674Z,94568.66
2023-04-16T03:08:42.202Z,94565.31
2023-04-16T03:13:44.596Z,94566.22
2023-04-16T03:18:46.861Z,94559.16
2023-04-16T03:23:49.806Z,94560.06
2023-04-16T03:28:52.163Z,94554.06
2023-04-16T03:33:54.903Z,94547.00
2023-04-16T03:38:57.626Z,94553.81
2023-04-16T03:43:59.899Z,94550.34
2023-04-16T03:49:01.992Z,94557.47
2023-04-16T03:54:04.806Z,94553.56
2023-04-16T03:59:07.881Z,94552.78
2023-04-16T04:04:11.047Z,94542.94
2023-04-16T04:09:16.473Z,94543.13
2023-04-16T04:14:19.111Z,94537.66
2023-04-16T04:19:21.603Z,94538.63
2023-04-16T04:24:24.572Z,94547.22
2023-04-16T04:29:28.922Z,94539.25
2023-04-16T04:34:31.735Z,94533.00
2023-04-16T04:39:34.545Z,94541.94
2023-04-16T04:44:37.435Z,94536.25
2023-04-16T04:49:48.495Z,94540.09
2023-04-16T04:54:50.900Z,94537.00
2023-04-16T04:59:53.332Z,94542.84
2023-04-16T05:04:56.420Z,94540.34
2023-04-16T05:10:01.706Z,94542.63
2023-04-16T05:15:06.338Z,94544.94
2023-04-16T05:20:11.351Z,94546.13
2023-04-16T05:25:14.512Z,94539.25
2023-04-16T05:30:18.318Z,94550.88
2023-04-16T05:35:20.435Z,94561.09
2023-04-16T05:40:22.764Z,94566.81
2023-04-16T05:45:27.374Z,94572.69
2023-04-16T05:50:31.430Z,94576.66
2023-04-16T05:55:34.057Z,94589.38
2023-04-16T06:00:41.083Z,94586.13
2023-04-16T06:05:43.851Z,94585.50
2023-04-16T06:10:47.172Z,94586.28
2023-04-16T06:15:49.636Z,94591.19
2023-04-16T06:20:52.177Z,94592.31
2023-04-16T06:25:54.555Z,94591.19
2023-04-16T06:30:56.907Z,94591.19
2023-04-16T06:35:59.021Z,94599.97
2023-04-16T06:41:01.156Z,94607.06
2023-04-16T06:46:03.389Z,94601.38
2023-04-16T06:51:05.400Z,94608.09
2023-04-16T06:56:07.841Z,94607.88
2023-04-16T07:01:11.393Z,94614.66
2023-04-16T07:06:13.613Z,94604.53
2023-04-16T07:11:15.834Z,94596.16
2023-04-16T07:16:20.477Z,94596.25
2023-04-16T07:21:23.137Z,94597.50
2023-04-16T07:26:25.425Z,94605.94
2023-04-16T07:31:27.980Z,94597.03
2023-04-16T07:36:33.631Z,94591.63
2023-04-16T07:41:36.020Z,94585.69
2023-04-16T07:46:46.111Z,94582.63
2023-04-16T07:51:49.879Z,94582.34
2023-04-16T07:56:52.616Z,94569.31
2023-04-16T08:01:55.499Z,94564.34
2023-04-16T08:06:57.595Z,94568.47
2023-04-16T08:12:01.159Z,94569.94
2023-04-16T08:17:03.459Z,94555.88
2023-04-16T08:22:13.100Z,94548.44
2023-04-16T08:27:19.707Z,94548.03
2023-04-16T08:32:22.700Z,94543.78
2023-04-16T08:37:26.389Z,94540.78
2023-04-16T08:42:28.630Z,94540.34
2023-04-16T08:47:33.207Z,94537.53
2023-04-16T08:52:38.870Z,94530.25
2023-04-16T08:58:00.139Z,94525.13
2023-04-16T09:03:03.403Z,94526.81
2023-04-16T09:08:07.014Z,94519.69
2023-04-16T09:13:21.469Z,94510.34
2023-04-16T09:18:24.193Z,94500.53
2023-04-16T09:23:27.503Z,94501.50
2023-04-16T09:28:40.232Z,94497.13
2023-04-16T09:33:47.388Z,94493.22
2023-04-16T09:38:51.592Z,94495.50
2023-04-16T09:44:04.384Z,94488.47
2023-04-16T09:49:18.783Z,94481.06
2023-04-16T09:54:21.059Z,94474.47
2023-04-16T09:59:24.403Z,94482.03
2023-04-16T10:04:27.999Z,94469.78
2023-04-16T10:09:51.273Z,94471.56
2023-04-16T10:14:53.445Z,94470.19
2023-04-16T10:19:59.632Z,94467.97
2023-04-16T10:25:01.865Z,94472.69
2023-04-16T10:30:04.939Z,94453.44
2023-04-16T10:35:16.393Z,94458.25
2023-04-16T10:40:27.298Z,94463.28
2023-04-16T10:45:33.529Z,94468.72
2023-04-16T10:50:40.226Z,94466.31
2023-04-16T10:55:42.155Z,94449.41
2023-04-16T11:00:51.354Z,94445.81
2023-04-16T11:05:53.274Z,94438.09
2023-04-16T11:10:59.005Z,94427.72
2023-04-16T11:16:01.886Z,94435.88
2023-04-16T11:21:08.758Z,94429.66
2023-04-16T11:26:30.995Z,94422.25
2023-04-16T11:31:33.488Z,94408.28
2023-04-16T11:36:46.325Z,94412.34
2023-04-16T11:41:50.408Z,94388.06
2023-04-16T11:46:56.886Z,94393.09
2023-04-16T11:52:00.395Z,94390.13
2023-04-16T11:57:04.771Z,94379.09
2023-04-16T12:02:08.060Z,94369.16
2023-04-16T12:07:14.907Z,94361.66
2023-04-16T12:12:28.319Z,94350.78
2023-04-16T12:17:34.895Z,94350.81
2023-04-16T12:22:39.519Z,94348.97
2023-04-16T12:27:53.431Z,94345.84
2023-04-16T12:33:16.884Z,94337.03
2023-04-16T12:38:19.186Z,94340.53
2023-04-16T12:43:24.195Z,94347.56
2023-04-16T12:48:26.359Z,94334.78
2023-04-16T12:53:28.747Z,94328.59
2023-04-16T12:58:36.445Z,94317.78
2023-04-16T13:03:39.345Z,94314.31
2023-04-16T13:08:43.406Z,94301.84
2023-04-16T13:13:49.686Z,94300.69
2023-04-16T13:18:52.199Z,94295.69
2023-04-16T13:23:54.502Z,94287.50
2023-04-16T13:28:56.693Z,94277.34
2023-04-16T13:33:59.035Z,94282.88
2023-04-16T13:39:08.206Z,94273.59
2023-04-16T13:44:10.503Z,94257.25
2023-04-16T13:49:13.215Z,94246.38
2023-04-16T13:54:18.458Z,94243.22
2023-04-16T13:59:23.351Z,94236.69
2023-04-16T14:04:25.934Z,94230.03
2023-04-16T14:09:28.375Z,94227.75
2023-04-16T14:14:32.428Z,94227.69
2023-04-16T14:19:34.657Z,94222.63
2023-04-16T14:24:37.663Z,94212.50
2023-04-16T14:29:47.766Z,94205.47
2023-04-16T14:34:50.203Z,94201.22
2023-04-16T14:39:52.953Z,94181.84
2023-04-16T14:44:56.524Z,94187.22
2023-04-16T14:49:58.953Z,94175.44
2023-04-16T14:55:01.619Z,94165.44
2023-04-16T15:00:08.129Z,94161.63
2023-04-16T15:05:11.013Z,94159.63
2023-04-16T15:10:18.995Z,94153.03
2023-04-16T15:15:22.909Z,94144.13
2023-04-16T15:20:25.290Z,94143.56
2023-04-16T15:25:29.295Z,94132.00
2023-04-16T15:30:31.805Z,94123.00
2023-04-16T15:35:35.559Z,94121.81
2023-04-16T15:40:39.208Z,94128.22
2023-04-16T15:45:43.711Z,94118.44
2023-04-16T15:50:48.785Z,94111.38
2023-04-16T15:55:53.077Z,94102.56
2023-04-16T16:00:55.244Z,94099.53
2023-04-16T16:05:59.350Z,94099.56
2023-04-16T16:11:02.418Z,94099.78
2023-04-16T16:16:06.957Z,94092.72
2023-04-16T16:21:12.381Z,94088.03
2023-04-16T16:26:19.344Z,94096.97
2023-04-16T16:31:21.480Z,94087.69
2023-04-16T16:36:23.815Z,94089.66
2023-04-16T16:41:29.113Z,94091.59
2023-04-16T16:46:32.026Z,94089.69
2023-04-16T16:51:35.387Z,94085.09
2023-04-16T16:56:37.887Z,94082.41
2023-04-16T17:01:40.055Z,94082.81
2023-04-16T17:06:42.313Z,94084.00
2023-04-16T17:11:44.659Z,94080.19
2023-04-16T17:16:49.986Z,94087.75
2023-04-16T17:21:52.396Z,94092.84
2023-04-16T17:26:54.614Z,94088.19
2023-04-16T17:31:57.165Z,94096.41
2023-04-16T17:36:59.234Z,94097.22
2023-04-16T17:42:03.197Z,94103.84
2023-04-16T17:47:05.493Z,94102.75
2023-04-16T17:52:10.657Z,94097.75
2023-04-16T17:57:13.320Z,94103.63
2023-04-16T18:02:17.122Z,94098.22
2023-04-16T18:07:19.858Z,94092.84
2023-04-16T18:12:25.132Z,94108.00
2023-04-16T18:17:27.317Z,94105.31
2023-04-16T18:22:31.483Z,94099.13
2023-04-16T18:27:33.673Z,94103.03
2023-04-16T18:32:37.772Z,94108.50
2023-04-16T18:37:49.092Z,94109.66
2023-04-16T18:42:51.336Z,94107.38
2023-04-16T18:47:56.812Z,94109.69
2023-04-16T18:53:01.136Z,94111.63
2023-04-16T18:58:05.897Z,94113.56
2023-04-16T19:03:08.231Z,94120.50
2023-04-16T19:08:10.235Z,94118.56
2023-04-16T19:13:12.432Z,94117.78
2023-04-16T19:18:14.616Z,94132.47
2023-04-16T19:23:16.697Z,94128.56
2023-04-16T19:28:18.811Z,94134.31
2023-04-16T19:33:21.158Z,94145.88
2023-04-16T19:38:23.852Z,94146.97
2023-04-16T19:43:30.489Z,94153.13
2023-04-16T19:48:33.549Z,94156.91
2023-04-16T19:53:36.220Z,94160.25
2023-04-16T19:58:39.405Z,94159.03
2023-04-16T20:03:41.751Z,94174.41
2023-04-16T20:08:45.005Z,94164.22
2023-04-16T20:13:48.983Z,94177.75
2023-04-16T20:18:54.546Z,94188.88
2023-04-16T20:23:57.180Z,94194.19
2023-04-16T20:29:03.735Z,94194.25
2023-04-16T20:34:06.263Z,94197.28
2023-04-16T20:39:10.088Z,94193.72
2023-04-16T20:44:18.471Z,94205.50
2023-04-16T20:49:21.106Z,94209.75
2023-04-16T20:54:24.438Z,94211.91
2023-04-16T20:59:33.875Z,94217.50
2023-04-16T21:04:36.684Z,94215.09
2023-04-16T21:17:02.674Z,94217.16
2023-04-16T21:22:04.745Z,94224.63
2023-04-16T21:27:06.905Z,94219.16
2023-04-16T21:32:11.154Z,94217.19
2023-04-16T21:37:20.600Z,94209.59
2023-04-16T21:42:22.933Z,94212.09
2023-04-16T21:47:26.095Z,94220.06
2023-04-16T21:52:33.128Z,94213.25
2023-04-16T21:57:35.496Z,94220.88
2023-04-16T22:02:42.303Z,94221.38
2023-04-16T22:07:44.790Z,94206.75
2023-04-16T22:12:46.937Z,94210.34
2023-04-16T22:17:49.383Z,94205.50
2023-04-16T22:22:58.060Z,94204.34
2023-04-16T22:28:01.833Z,94198.25
2023-04-16T22:33:04.800Z,94201.38
2023-04-16T22:38:07.887Z,94198.97
2023-04-16T22:43:09.948Z,94191.72
2023-04-16T22:48:27.025Z,94189.75
2023-04-16T22:53:31.703Z,94195.44
2023-04-16T22:58:34.093Z,94205.19
2023-04-16T23:03:36.434Z,94197.81
2023-04-16T23:08:41.769Z,94196.09
2023-04-16T23:13:44.171Z,94185.81
2023-04-16T23:18:46.866Z,94188.63
2023-04-16T23:23:50.661Z,94182.56
2023-04-16T23:28:52.818Z,94189.19
2023-04-16T23:33:55.164Z,94190.75
2023-04-16T23:38:57.464Z,94192.28
2023-04-16T23:44:00.263Z,94185.25
2023-04-16T23:49:03.066Z,94186.28
2023-04-16T23:54:05.358Z,94178.06
2023-04-16T23:59:11.034Z,94175.63
